Time,TemperatureF,DewpointF,PressureIn,WindDirection,WindDirectionDegrees,WindSpeedMPH,WindSpeedGustMPH,Humidity,HourlyPrecipIn,Conditions,Clouds,dailyrainin,SoftwareType,DateUTC
2013-01-11 00:03:00,40.0,25.0,-100.00,SSW,200,7.0,10.0,54,0.00,,,-99.99,,2013-01-11 05:03:00,
2013-01-11 00:13:00,40.0,25.0,-100.00,SSW,200,7.0,11.0,54,0.00,,,-99.99,,2013-01-11 05:13:00,
2013-01-11 00:22:00,40.0,25.0,-100.00,SW,215,6.0,11.0,54,0.00,,,-99.99,,2013-01-11 05:22:00,
2013-01-11 00:33:00,40.0,25.0,-100.00,SSW,195,7.0,12.0,54,0.00,,,-99.99,,2013-01-11 05:33:00,
2013-01-11 00:43:00,40.0,25.0,-100.00,SW,215,4.0,9.0,54,0.00,,,-99.99,,2013-01-11 05:43:00,
2013-01-11 00:52:00,41.0,25.0,-100.00,SSW,195,4.0,7.0,53,0.00,,,-99.99,,2013-01-11 05:52:00,
2013-01-11 01:03:00,41.0,25.0,-100.00,SSW,205,4.0,9.0,53,0.00,,,-99.99,,2013-01-11 06:03:00,
2013-01-11 01:12:00,41.0,25.0,-100.00,SSW,195,6.0,9.0,52,0.00,,,-99.99,,2013-01-11 06:12:00,
2013-01-11 01:22:00,41.0,25.0,-100.00,SSW,195,4.0,8.0,51,0.00,,,-99.99,,2013-01-11 06:22:00,
2013-01-11 01:32:00,41.0,25.0,-100.00,SSW,210,6.0,8.0,52,0.00,,,-99.99,,2013-01-11 06:32:00,
2013-01-11 01:42:00,41.0,25.0,-100.00,SSW,200,4.0,7.0,52,0.00,,,-99.99,,2013-01-11 06:42:00,
2013-01-11 01:52:00,41.0,25.0,-100.00,SSW,205,4.0,8.0,51,0.00,,,-99.99,,2013-01-11 06:52:00,
2013-01-11 02:02:00,41.0,25.0,-100.00,SSW,210,4.0,7.0,52,0.00,,,-99.99,,2013-01-11 07:02:00,
2013-01-11 02:12:00,42.0,25.0,-100.00,SSW,205,2.0,6.0,51,0.00,,,-99.99,,2013-01-11 07:12:00,
2013-01-11 02:22:00,42.0,25.0,-100.00,SSW,200,4.0,6.0,51,0.00,,,-99.99,,2013-01-11 07:22:00,
2013-01-11 02:32:00,42.0,25.0,-100.00,SW,215,3.0,6.0,51,0.00,,,-99.99,,2013-01-11 07:32:00,
2013-01-11 02:42:00,42.0,25.0,-100.00,SSW,200,4.0,7.0,50,0.00,,,-99.99,,2013-01-11 07:42:00,
2013-01-11 02:52:00,42.0,25.0,-100.00,SSW,200,6.0,9.0,50,0.00,,,-99.99,,2013-01-11 07:52:00,
2013-01-11 03:02:00,43.0,26.0,-100.00,SSW,200,5.0,11.0,50,0.00,,,-99.99,,2013-01-11 08:02:00,
2013-01-11 03:12:00,43.0,26.0,-100.00,South,190,6.0,12.0,49,0.00,,,-99.99,,2013-01-11 08:12:00,
2013-01-11 03:22:00,43.0,26.0,-100.00,SW,225,6.0,9.0,50,0.00,,,-99.99,,2013-01-11 08:22:00,
2013-01-11 03:32:00,43.0,26.0,-100.00,SW,230,6.0,11.0,50,0.00,,,-99.99,,2013-01-11 08:32:00,
2013-01-11 03:42:00,43.0,26.0,-100.00,SW,235,6.0,11.0,50,0.00,,,-99.99,,2013-01-11 08:42:00,
2013-01-11 03:52:00,43.0,26.0,-100.00,SW,230,6.0,8.0,51,0.00,,,-99.99,,2013-01-11 08:52:00,
2013-01-11 04:02:00,44.0,27.0,-100.00,SW,220,6.0,9.0,50,0.00,,,-99.99,,2013-01-11 09:02:00,
2013-01-11 04:12:00,44.0,27.0,-100.00,SW,215,7.0,12.0,50,0.00,,,-99.99,,2013-01-11 09:12:00,
2013-01-11 04:23:00,44.0,27.0,-100.00,SW,215,6.0,10.0,51,0.00,,,-99.99,,2013-01-11 09:23:00,
2013-01-11 04:32:00,44.0,28.0,-100.00,SSW,210,7.0,11.0,51,0.00,,,-99.99,,2013-01-11 09:32:00,
2013-01-11 04:42:00,44.0,28.0,-100.00,WSW,240,6.0,9.0,52,0.00,,,-99.99,,2013-01-11 09:42:00,
2013-01-11 04:52:00,44.0,29.0,-100.00,SW,230,7.0,10.0,53,0.00,,,-99.99,,2013-01-11 09:52:00,
2013-01-11 05:02:00,45.0,29.0,-100.00,SW,225,7.0,11.0,53,0.00,,,-99.99,,2013-01-11 10:02:00,
2013-01-11 05:12:00,45.0,29.0,-100.00,WSW,240,7.0,11.0,53,0.00,,,-99.99,,2013-01-11 10:12:00,
2013-01-11 05:22:00,45.0,29.0,-100.00,SW,230,7.0,12.0,54,0.00,,,-99.99,,2013-01-11 10:22:00,
2013-01-11 05:32:00,45.0,29.0,-100.00,SW,225,7.0,12.0,54,0.00,,,-99.99,,2013-01-11 10:32:00,
2013-01-11 05:42:00,45.0,29.0,-100.00,WSW,245,7.0,12.0,54,0.00,,,-99.99,,2013-01-11 10:42:00,
2013-01-11 05:52:00,45.0,30.0,-100.00,WSW,240,8.0,14.0,54,0.00,,,-99.99,,2013-01-11 10:52:00,
2013-01-11 06:03:00,45.0,30.0,-100.00,SW,225,9.0,11.0,55,0.00,,,-99.99,,2013-01-11 11:03:00,
2013-01-11 06:12:00,45.0,31.0,-100.00,SW,225,7.0,12.0,56,0.00,,,-99.99,,2013-01-11 11:12:00,
2013-01-11 06:22:00,45.0,31.0,-100.00,SW,235,7.0,10.0,56,0.00,,,-99.99,,2013-01-11 11:22:00,
2013-01-11 06:33:00,45.0,31.0,-100.00,SW,220,7.0,11.0,57,0.00,,,-99.99,,2013-01-11 11:33:00,
2013-01-11 06:42:00,45.0,33.0,-100.00,SW,235,6.0,11.0,62,0.00,,,-99.99,,2013-01-11 11:42:00,
2013-01-11 06:52:00,44.0,34.0,-100.00,SW,225,7.0,11.0,67,0.00,,,-99.99,,2013-01-11 11:52:00,
2013-01-11 07:03:00,44.0,35.0,-100.00,SW,220,10.0,12.0,70,0.00,,,-99.99,,2013-01-11 12:03:00,
2013-01-11 07:12:00,44.0,35.0,-100.00,SW,230,12.0,16.0,70,0.00,,,-99.99,,2013-01-11 12:12:00,
2013-01-11 07:22:00,44.0,36.0,-100.00,WSW,240,11.0,19.0,72,0.00,,,-99.99,,2013-01-11 12:22:00,
2013-01-11 07:33:00,44.0,36.0,-100.00,SW,230,10.0,14.0,74,0.00,,,-99.99,,2013-01-11 12:33:00,
2013-01-11 07:42:00,44.0,37.0,-100.00,SW,235,11.0,15.0,75,0.00,,,-99.99,,2013-01-11 12:42:00,
2013-01-11 07:52:00,44.0,37.0,-100.00,SW,225,10.0,16.0,75,0.00,,,-99.99,,2013-01-11 12:52:00,
2013-01-11 08:03:00,44.0,37.0,-100.00,SW,220,10.0,15.0,75,0.00,,,-99.99,,2013-01-11 13:03:00,
2013-01-11 08:13:00,45.0,37.0,-100.00,SW,220,9.0,16.0,74,0.00,,,-99.99,,2013-01-11 13:13:00,
2013-01-11 08:22:00,46.0,38.0,-100.00,SW,220,11.0,17.0,73,0.00,,,-99.99,,2013-01-11 13:22:00,
2013-01-11 08:33:00,46.0,38.0,-100.00,SW,230,7.0,14.0,73,0.00,,,-99.99,,2013-01-11 13:33:00,
2013-01-11 08:42:00,46.0,38.0,-100.00,SW,235,7.0,12.0,73,0.00,,,-99.99,,2013-01-11 13:42:00,
2013-01-11 08:52:00,46.0,38.0,-100.00,SW,230,8.0,14.0,73,1.10,,,-99.99,,2013-01-11 13:52:00,
2013-01-11 09:03:00,46.0,39.0,-100.00,SW,230,9.0,14.0,76,0.00,,,-99.99,,2013-01-11 14:03:00,
2013-01-11 09:12:00,45.0,39.0,-100.00,SW,220,12.0,16.0,79,9.06,,,-99.99,,2013-01-11 14:12:00,
2013-01-11 09:23:00,45.0,40.0,-100.00,SW,225,11.0,14.0,82,0.00,,,-99.99,,2013-01-11 14:23:00,
2013-01-11 09:33:00,46.0,41.0,-100.00,SW,225,12.0,16.0,83,0.00,,,-99.99,,2013-01-11 14:33:00,
2013-01-11 09:43:00,46.0,41.0,-100.00,SW,225,10.0,14.0,83,0.00,,,-99.99,,2013-01-11 14:43:00,
2013-01-11 09:53:00,46.0,42.0,-100.00,WSW,250,8.0,13.0,83,0.00,,,-99.99,,2013-01-11 14:53:00,
2013-01-11 10:03:00,46.0,42.0,-100.00,WSW,245,4.0,12.0,83,1.10,,,-99.99,,2013-01-11 15:03:00,
2013-01-11 10:13:00,46.0,42.0,-100.00,SW,235,4.0,9.0,85,5.08,,,-99.99,,2013-01-11 15:13:00,
2013-01-11 10:23:00,46.0,42.0,-100.00,SW,220,9.0,11.0,86,2.24,,,-99.99,,2013-01-11 15:23:00,
2013-01-11 10:33:00,46.0,42.0,-100.00,SW,230,9.0,11.0,88,2.24,,,-99.99,,2013-01-11 15:33:00,
2013-01-11 10:43:00,46.0,43.0,-100.00,SW,220,11.0,14.0,89,0.00,,,-99.99,,2013-01-11 15:43:00,
2013-01-11 10:52:00,46.0,43.0,-100.00,SW,225,9.0,15.0,89,2.24,,,-99.99,,2013-01-11 15:52:00,
2013-01-11 11:03:00,46.0,43.0,-100.00,SW,225,7.0,12.0,90,1.69,,,-99.99,,2013-01-11 16:03:00,
2013-01-11 11:12:00,46.0,43.0,-100.00,SW,235,4.0,12.0,90,0.00,,,-99.99,,2013-01-11 16:12:00,
2013-01-11 11:22:00,46.0,44.0,-100.00,North,350,4.0,11.0,90,0.00,,,-99.99,,2013-01-11 16:22:00,
2013-01-11 11:33:00,46.0,44.0,-100.00,SW,235,3.0,6.0,90,0.00,,,-99.99,,2013-01-11 16:33:00,
2013-01-11 11:43:00,46.0,44.0,-100.00,NNW,335,3.0,7.0,91,0.00,,,-99.99,,2013-01-11 16:43:00,
2013-01-11 11:52:00,46.0,44.0,-100.00,NNW,335,3.0,7.0,91,0.00,,,-99.99,,2013-01-11 16:52:00,
2013-01-11 12:03:00,47.0,45.0,-100.00,SW,230,4.0,6.0,91,0.00,,,-99.99,,2013-01-11 17:03:00,
2013-01-11 12:12:00,47.0,45.0,-100.00,SW,230,4.0,6.0,91,0.00,,,-99.99,,2013-01-11 17:12:00,
2013-01-11 12:22:00,48.0,46.0,-100.00,WSW,240,4.0,7.0,91,0.00,,,-99.99,,2013-01-11 17:22:00,
2013-01-11 12:33:00,48.0,46.0,-100.00,WSW,240,4.0,7.0,91,0.00,,,-99.99,,2013-01-11 17:33:00,
2013-01-11 12:43:00,50.0,48.0,-100.00,SW,225,9.0,16.0,92,0.55,,,-99.99,,2013-01-11 17:43:00,
2013-01-11 12:53:00,51.0,49.0,-100.00,SW,230,10.0,16.0,92,0.00,,,-99.99,,2013-01-11 17:53:00,
2013-01-11 13:04:00,52.0,50.0,-100.00,SW,230,10.0,16.0,91,0.00,,,-99.99,,2013-01-11 18:04:00,
2013-01-11 13:13:00,53.0,50.0,-100.00,WSW,255,10.0,16.0,90,0.00,,,-99.99,,2013-01-11 18:13:00,
2013-01-11 13:23:00,53.0,50.0,-100.00,WSW,255,10.0,16.0,90,0.00,,,-99.99,,2013-01-11 18:23:00,
2013-01-11 13:33:00,54.0,50.0,-100.00,WSW,245,6.0,16.0,88,0.00,,,-99.99,,2013-01-11 18:33:00,
2013-01-11 13:43:00,54.0,50.0,-100.00,WSW,255,7.0,16.0,87,0.00,,,-99.99,,2013-01-11 18:43:00,
2013-01-11 13:53:00,55.0,51.0,-100.00,West,280,6.0,12.0,86,0.00,,,-99.99,,2013-01-11 18:53:00,
2013-01-11 14:03:00,55.0,50.0,-100.00,WNW,295,8.0,19.0,86,0.00,,,-99.99,,2013-01-11 19:03:00,
2013-01-11 14:12:00,55.0,50.0,-100.00,NNW,335,7.0,16.0,85,0.00,,,-99.99,,2013-01-11 19:12:00,
2013-01-11 14:22:00,55.0,50.0,-100.00,WNW,300,6.0,16.0,85,0.00,,,-99.99,,2013-01-11 19:22:00,
2013-01-11 14:33:00,55.0,50.0,-100.00,West,275,6.0,12.0,84,0.00,,,-99.99,,2013-01-11 19:33:00,
2013-01-11 14:43:00,55.0,50.0,-100.00,WNW,300,6.0,12.0,83,0.00,,,-99.99,,2013-01-11 19:43:00,
2013-01-11 14:53:00,55.0,50.0,-100.00,WNW,285,2.0,11.0,83,0.00,,,-99.99,,2013-01-11 19:53:00,
2013-01-11 15:03:00,56.0,51.0,-100.00,West,275,4.0,12.0,82,0.00,,,-99.99,,2013-01-11 20:03:00,
2013-01-11 15:12:00,56.0,51.0,-100.00,SW,235,3.0,15.0,81,0.00,,,-99.99,,2013-01-11 20:12:00,
2013-01-11 15:22:00,57.0,51.0,-100.00,WNW,295,7.0,13.0,78,0.00,,,-99.99,,2013-01-11 20:22:00,
2013-01-11 15:33:00,58.0,50.0,-100.00,WNW,290,7.0,14.0,76,0.00,,,-99.99,,2013-01-11 20:33:00,
2013-01-11 15:43:00,58.0,50.0,-100.00,NNW,345,6.0,11.0,76,0.00,,,-99.99,,2013-01-11 20:43:00,
2013-01-11 15:52:00,57.0,50.0,-100.00,NW,305,6.0,11.0,76,0.00,,,-99.99,,2013-01-11 20:52:00,
2013-01-11 16:03:00,58.0,51.0,-100.00,NW,325,4.0,13.0,76,0.00,,,-99.99,,2013-01-11 21:03:00,
2013-01-11 16:12:00,56.0,49.0,-100.00,WNW,295,4.0,12.0,77,0.00,,,-99.99,,2013-01-11 21:12:00,
2013-01-11 16:23:00,56.0,50.0,-100.00,WNW,285,4.0,12.0,78,0.00,,,-99.99,,2013-01-11 21:23:00,
2013-01-11 16:33:00,56.0,49.0,-100.00,WSW,255,4.0,9.0,78,0.00,,,-99.99,,2013-01-11 21:33:00,
2013-01-11 16:42:00,56.0,49.0,-100.00,WNW,285,4.0,7.0,78,0.00,,,-99.99,,2013-01-11 21:42:00,
2013-01-11 16:52:00,56.0,49.0,-100.00,West,260,4.0,8.0,78,0.00,,,-99.99,,2013-01-11 21:52:00,
2013-01-11 17:03:00,56.0,49.0,-100.00,West,275,4.0,9.0,79,0.00,,,-99.99,,2013-01-11 22:03:00,
2013-01-11 17:12:00,55.0,49.0,-100.00,West,265,4.0,7.0,79,0.00,,,-99.99,,2013-01-11 22:12:00,
2013-01-11 17:22:00,55.0,49.0,-100.00,West,265,3.0,8.0,80,0.00,,,-99.99,,2013-01-11 22:22:00,
2013-01-11 17:33:00,55.0,49.0,-100.00,West,270,2.0,6.0,80,0.00,,,-99.99,,2013-01-11 22:33:00,
2013-01-11 17:42:00,55.0,49.0,-100.00,WSW,245,2.0,6.0,80,0.00,,,-99.99,,2013-01-11 22:42:00,
2013-01-11 17:52:00,55.0,49.0,-100.00,West,265,2.0,6.0,81,0.00,,,-99.99,,2013-01-11 22:52:00,
2013-01-11 18:02:00,55.0,49.0,-100.00,WSW,255,3.0,6.0,80,0.00,,,-99.99,,2013-01-11 23:02:00,
2013-01-11 18:13:00,55.0,49.0,-100.00,West,265,4.0,7.0,80,0.00,,,-99.99,,2013-01-11 23:13:00,
2013-01-11 18:22:00,55.0,49.0,-100.00,West,280,3.0,6.0,80,0.00,,,-99.99,,2013-01-11 23:22:00,
2013-01-11 18:32:00,55.0,49.0,-100.00,WSW,255,3.0,6.0,80,0.00,,,-99.99,,2013-01-11 23:32:00,
2013-01-11 18:43:00,55.0,49.0,-100.00,WSW,255,4.0,8.0,80,0.00,,,-99.99,,2013-01-11 23:43:00,
2013-01-11 18:53:00,55.0,49.0,-100.00,WSW,255,4.0,8.0,80,0.00,,,-99.99,,2013-01-11 23:53:00,
2013-01-11 19:03:00,55.0,48.0,-100.00,West,260,2.0,7.0,79,0.00,,,-99.99,,2013-01-12 00:03:00,
2013-01-11 19:12:00,54.0,48.0,-100.00,SW,235,1.0,6.0,79,0.00,,,-99.99,,2013-01-12 00:12:00,
2013-01-11 19:23:00,54.0,48.0,-100.00,SW,235,1.0,6.0,79,0.00,,,-99.99,,2013-01-12 00:23:00,
2013-01-11 19:33:00,54.0,47.0,-100.00,West,270,2.0,7.0,79,0.00,,,-99.99,,2013-01-12 00:33:00,
2013-01-11 19:43:00,53.0,47.0,-100.00,West,275,2.0,6.0,79,0.00,,,-99.99,,2013-01-12 00:43:00,
2013-01-11 19:52:00,53.0,47.0,-100.00,WNW,290,2.0,6.0,80,0.00,,,-99.99,,2013-01-12 00:52:00,
2013-01-11 20:03:00,53.0,47.0,-100.00,WNW,285,2.0,8.0,80,0.00,,,-99.99,,2013-01-12 01:03:00,
2013-01-11 20:12:00,53.0,47.0,-100.00,West,275,3.0,8.0,80,0.00,,,-99.99,,2013-01-12 01:12:00,
2013-01-11 20:22:00,52.0,47.0,-100.00,West,265,2.0,6.0,81,0.00,,,-99.99,,2013-01-12 01:22:00,
2013-01-11 20:33:00,52.0,46.0,-100.00,West,275,2.0,6.0,81,0.00,,,-99.99,,2013-01-12 01:33:00,
2013-01-11 20:43:00,52.0,46.0,-100.00,West,270,2.0,4.0,82,0.00,,,-99.99,,2013-01-12 01:43:00,
2013-01-11 20:52:00,51.0,46.0,-100.00,WSW,250,1.0,4.0,82,0.00,,,-99.99,,2013-01-12 01:52:00,
2013-01-11 21:02:00,51.0,46.0,-100.00,SW,225,2.0,4.0,82,0.00,,,-99.99,,2013-01-12 02:02:00,
2013-01-11 21:12:00,51.0,46.0,-100.00,West,270,1.0,3.0,83,0.00,,,-99.99,,2013-01-12 02:12:00,
2013-01-11 21:22:00,51.0,46.0,-100.00,West,265,2.0,4.0,83,0.00,,,-99.99,,2013-01-12 02:22:00,
2013-01-11 21:33:00,51.0,46.0,-100.00,West,265,2.0,4.0,83,0.00,,,-99.99,,2013-01-12 02:33:00,
2013-01-11 21:43:00,51.0,46.0,-100.00,WNW,295,1.0,3.0,83,0.00,,,-99.99,,2013-01-12 02:43:00,
2013-01-11 21:53:00,50.0,46.0,-100.00,WSW,255,1.0,3.0,84,0.00,,,-99.99,,2013-01-12 02:53:00,
2013-01-11 22:03:00,50.0,46.0,-100.00,WSW,250,2.0,5.0,84,0.00,,,-99.99,,2013-01-12 03:03:00,
2013-01-11 22:12:00,50.0,45.0,-100.00,SW,235,1.0,4.0,84,0.00,,,-99.99,,2013-01-12 03:12:00,
2013-01-11 22:22:00,49.0,45.0,-100.00,SW,230,2.0,3.0,85,0.00,,,-99.99,,2013-01-12 03:22:00,
2013-01-11 22:33:00,49.0,45.0,-100.00,SW,235,1.0,3.0,85,0.00,,,-99.99,,2013-01-12 03:33:00,
2013-01-11 22:43:00,49.0,45.0,-100.00,WSW,245,1.0,3.0,86,0.00,,,-99.99,,2013-01-12 03:43:00,
2013-01-11 22:52:00,49.0,45.0,-100.00,WSW,240,2.0,3.0,86,0.00,,,-99.99,,2013-01-12 03:52:00,
2013-01-11 23:02:00,48.0,45.0,-100.00,WSW,240,2.0,4.0,86,0.00,,,-99.99,,2013-01-12 04:02:00,
2013-01-11 23:12:00,49.0,45.0,-100.00,SW,230,2.0,3.0,86,0.00,,,-99.99,,2013-01-12 04:12:00,
2013-01-11 23:22:00,48.0,45.0,-100.00,WSW,240,2.0,4.0,87,0.00,,,-99.99,,2013-01-12 04:22:00,
2013-01-11 23:32:00,48.0,45.0,-100.00,WSW,240,2.0,4.0,87,0.00,,,-99.99,,2013-01-12 04:32:00,
2013-01-11 23:42:00,49.0,45.0,-100.00,SW,235,2.0,4.0,87,0.00,,,-99.99,,2013-01-12 04:42:00,
2013-01-11 23:52:00,49.0,46.0,-100.00,SW,235,2.0,6.0,87,0.00,,,-99.99,,2013-01-12 04:52:00,